CheckWX is a tool to help pilots better visualize weather data.  It is not intended as a substitute for an official pre-flight weather briefing.

01:59:38 UTC

EDDT TAF
Berlin-Tegel International Airport
Berlin, Germany
TAF EDDT 182300Z 1900/1924 25004KT 9999 FEW010 BECMG 1909/1912 25010KT BECMG 1916/1919 25004KT

Aug-19@
00:00 UTC

Aug-19 @ 00:00 UTC

Aug-19@
09:00 UTC

Aug-19 @ 09:00 UTC

TAF EDDT 182300Z 1900/1924 25004KT 9999 FEW010
Wind
  • 250° at 4 KTS
Cloud Levels
  • Few at 1,000' AGL

Aug-19@
09:00 UTC

Aug-19 @ 09:00 UTC

Aug-19@
16:00 UTC

Aug-19 @ 16:00 UTC

BECMG 1909/1912 25010KT

Becoming

Becoming Conditions expected by Mon, Aug 19, 2019 @ 12:00 UTC

Wind
  • 250° at 10 KTS
Cloud Levels
  • Few at 1,000' AGL

Aug-19@
16:00 UTC

Aug-19 @ 16:00 UTC

Aug-20@
00:00 UTC

Aug-20 @ 00:00 UTC

BECMG 1916/1919 25004KT

Becoming

Becoming Conditions expected by Mon, Aug 19, 2019 @ 19:00 UTC

Wind
  • 250° at 4 KTS
Cloud Levels
  • Few at 1,000' AGL